Time;durP1;ratioP1;P1;durP2;ratioP2;P2;SDS_P1;SDS_P2;PMS_P1;PMS_P2;Temp;Humidity;BMP_temperature;BMP_pressure;BME280_temperature;BME280_humidity;BME280_pressure;Samples;Min_cycle;Max_cycle;Signal;HPM_P1;HPM_P2
2023/06/29 00:02:06;;;;;;;0.30;0.30;;;;;;;;;;5048764;28;20037;-85
2023/06/29 00:04:34;;;;;;;0.10;0.10;;;;;;;;;;5049162;28;20013;-85
2023/06/29 00:07:02;;;;;;;0.20;0.20;;;;;;;;;;5049054;28;20120;-85
2023/06/29 00:09:29;;;;;;;0.10;0.10;;;;;;;;;;5048940;28;20021;-85
2023/06/29 00:11:55;;;;;;;0.20;0.20;;;;;;;;;;5049008;28;20025;-85
2023/06/29 00:14:21;;;;;;;0.10;0.10;;;;;;;;;;5046988;28;20074;-85
2023/06/29 00:16:50;;;;;;;0.10;0.10;;;;;;;;;;5048795;28;20532;-85
2023/06/29 00:19:16;;;;;;;0.15;0.15;;;;;;;;;;5048562;28;20032;-85
2023/06/29 00:21:42;;;;;;;0.00;0.00;;;;;;;;;;5048888;28;20039;-85
2023/06/29 00:24:11;;;;;;;0.28;0.20;;;;;;;;;;5048783;28;20029;-85
2023/06/29 00:26:40;;;;;;;0.30;0.15;;;;;;;;;;5048482;28;20137;-85
2023/06/29 00:29:06;;;;;;;0.40;0.40;;;;;;;;;;5048664;28;20124;-85
2023/06/29 00:31:32;;;;;;;0.10;0.10;;;;;;;;;;5048749;28;20017;-86
2023/06/29 00:33:58;;;;;;;0.10;0.10;;;;;;;;;;5048539;28;20075;-85
2023/06/29 00:36:24;;;;;;;0.20;0.20;;;;;;;;;;5048682;28;20048;-85
2023/06/29 00:38:50;;;;;;;0.20;0.20;;;;;;;;;;5052205;28;20025;-86
2023/06/29 00:41:16;;;;;;;0.00;0.00;;;;;;;;;;5052259;28;20046;-85
2023/06/29 00:43:43;;;;;;;0.10;0.10;;;;;;;;;;5051731;27;20104;-85
2023/06/29 00:46:09;;;;;;;0.28;0.28;;;;;;;;;;5050796;27;20040;-85
2023/06/29 00:48:39;;;;;;;0.40;0.40;;;;;;;;;;5051557;28;20507;-85
2023/06/29 00:51:05;;;;;;;0.30;0.30;;;;;;;;;;5052023;28;20395;-85
2023/06/29 00:53:31;;;;;;;0.20;0.20;;;;;;;;;;5051749;28;20029;-85
2023/06/29 00:55:59;;;;;;;0.22;0.20;;;;;;;;;;5050072;28;20379;-85
2023/06/29 00:58:25;;;;;;;0.32;0.32;;;;;;;;;;5051914;28;20391;-85
2023/06/29 01:00:51;;;;;;;0.10;0.10;;;;;;;;;;5050321;28;20078;-86
2023/06/29 01:03:18;;;;;;;0.10;0.10;;;;;;;;;;5051543;28;20064;-85
2023/06/29 01:05:45;;;;;;;0.10;0.10;;;;;;;;;;5051564;28;20112;-85
2023/06/29 01:08:18;;;;;;;0.10;0.10;;;;;;;;;;5051512;28;20029;-85
2023/06/29 01:10:45;;;;;;;0.22;0.22;;;;;;;;;;5051593;28;20025;-85
2023/06/29 01:13:11;;;;;;;0.15;0.15;;;;;;;;;;5051518;28;20036;-85
2023/06/29 01:15:39;;;;;;;0.47;0.47;;;;;;;;;;5051258;28;20029;-85
2023/06/29 01:18:07;;;;;;;0.20;0.20;;;;;;;;;;5051574;28;20101;-85
2023/06/29 01:20:33;;;;;;;0.30;0.30;;;;;;;;;;5051737;28;20037;-85
2023/06/29 01:23:00;;;;;;;0.10;0.10;;;;;;;;;;5051077;28;20033;-85
2023/06/29 01:25:27;;;;;;;0.13;0.13;;;;;;;;;;5051197;28;20021;-85
2023/06/29 01:27:53;;;;;;;0.10;0.10;;;;;;;;;;5050992;28;20560;-85
2023/06/29 01:30:23;;;;;;;0.17;0.17;;;;;;;;;;5051286;28;20021;-85
2023/06/29 01:32:49;;;;;;;0.13;0.13;;;;;;;;;;5051720;28;20371;-85
2023/06/29 01:35:15;;;;;;;0.10;0.10;;;;;;;;;;5051311;28;20032;-85
2023/06/29 01:37:45;;;;;;;0.10;0.10;;;;;;;;;;5051088;28;20052;-85
2023/06/29 01:40:11;;;;;;;0.20;0.20;;;;;;;;;;5050626;28;20021;-85
2023/06/29 01:42:38;;;;;;;0.30;0.20;;;;;;;;;;5051099;28;20060;-85
2023/06/29 01:45:06;;;;;;;1.17;0.85;;;;;;;;;;5051273;28;20032;-85
2023/06/29 01:47:32;;;;;;;0.10;0.10;;;;;;;;;;5050687;27;20070;-85
2023/06/29 01:49:59;;;;;;;0.20;0.20;;;;;;;;;;5050731;28;20122;-85
2023/06/29 01:52:25;;;;;;;0.08;0.08;;;;;;;;;;5050845;28;20052;-85
2023/06/29 01:54:51;;;;;;;0.13;0.13;;;;;;;;;;5050590;28;20025;-85
2023/06/29 01:57:17;;;;;;;0.20;0.20;;;;;;;;;;5050712;28;20025;-85
2023/06/29 01:59:44;;;;;;;0.25;0.25;;;;;;;;;;5050844;28;20028;-85
2023/06/29 02:02:10;;;;;;;0.13;0.13;;;;;;;;;;5050588;28;20041;-85
2023/06/29 02:04:36;;;;;;;0.10;0.10;;;;;;;;;;5051047;28;20482;-85
2023/06/29 02:07:03;;;;;;;0.05;0.05;;;;;;;;;;5050659;28;20029;-86
2023/06/29 02:09:29;;;;;;;0.00;0.00;;;;;;;;;;5050236;28;20431;-85
2023/06/29 02:11:55;;;;;;;0.10;0.10;;;;;;;;;;5050333;28;20116;-85
2023/06/29 02:14:21;;;;;;;0.10;0.10;;;;;;;;;;5050427;28;20105;-85
2023/06/29 02:16:47;;;;;;;0.30;0.22;;;;;;;;;;5050984;28;20064;-85
2023/06/29 02:19:13;;;;;;;0.10;0.10;;;;;;;;;;5050235;28;20090;-86
2023/06/29 02:21:39;;;;;;;0.03;0.03;;;;;;;;;;5050208;28;20128;-85
2023/06/29 02:24:05;;;;;;;0.20;0.20;;;;;;;;;;5050184;28;20104;-84
2023/06/29 02:26:31;;;;;;;0.20;0.20;;;;;;;;;;5050181;28;20056;-85
2023/06/29 02:28:57;;;;;;;0.10;0.10;;;;;;;;;;5050575;27;20391;-85
2023/06/29 02:31:23;;;;;;;7.57;0.60;;;;;;;;;;5050451;28;20025;-85
2023/06/29 02:33:50;;;;;;;0.10;0.10;;;;;;;;;;5049024;28;20021;-85
2023/06/29 02:36:18;;;;;;;0.10;0.10;;;;;;;;;;5050396;28;20040;-85
2023/06/29 02:38:44;;;;;;;0.10;0.10;;;;;;;;;;5048946;28;20079;-85
2023/06/29 02:41:10;;;;;;;0.20;0.20;;;;;;;;;;5048785;28;20029;-85
2023/06/29 02:43:36;;;;;;;0.20;0.20;;;;;;;;;;5049944;28;20025;-85
2023/06/29 02:46:02;;;;;;;0.10;0.10;;;;;;;;;;5050038;28;20025;-85
2023/06/29 02:48:28;;;;;;;0.10;0.10;;;;;;;;;;5049919;27;20120;-85
2023/06/29 02:50:54;;;;;;;0.20;0.20;;;;;;;;;;5049832;28;20399;-85
2023/06/29 02:53:20;;;;;;;0.10;0.10;;;;;;;;;;5049547;28;20017;-85
2023/06/29 02:55:45;;;;;;;0.10;0.10;;;;;;;;;;5049735;28;20033;-85
2023/06/29 02:58:11;;;;;;;0.00;0.00;;;;;;;;;;5050045;28;20017;-85
2023/06/29 03:00:37;;;;;;;0.20;0.20;;;;;;;;;;5048695;28;20036;-85
2023/06/29 03:03:03;;;;;;;0.10;0.10;;;;;;;;;;5049948;28;20058;-85
2023/06/29 03:05:29;;;;;;;0.10;0.10;;;;;;;;;;5049775;28;20044;-85
2023/06/29 03:07:55;;;;;;;0.20;0.20;;;;;;;;;;5049738;28;20033;-84
2023/06/29 03:10:21;;;;;;;0.30;0.30;;;;;;;;;;5049717;28;20120;-85
2023/06/29 03:12:47;;;;;;;0.82;0.32;;;;;;;;;;5049614;28;20029;-85
2023/06/29 03:15:13;;;;;;;0.30;0.30;;;;;;;;;;5049398;28;20054;-85
2023/06/29 03:17:40;;;;;;;2.25;0.75;;;;;;;;;;5049440;28;20038;-85
2023/06/29 03:20:06;;;;;;;0.15;0.15;;;;;;;;;;5049860;28;20032;-85
2023/06/29 03:22:32;;;;;;;3.35;0.55;;;;;;;;;;5049119;28;20525;-85
2023/06/29 03:24:58;;;;;;;0.00;0.00;;;;;;;;;;5049520;28;20028;-85
2023/06/29 03:27:24;;;;;;;0.20;0.20;;;;;;;;;;5049133;28;20048;-85
2023/06/29 03:29:53;;;;;;;0.08;0.08;;;;;;;;;;5049792;28;20045;-85
2023/06/29 03:32:19;;;;;;;0.15;0.15;;;;;;;;;;5049561;28;20030;-85
2023/06/29 03:34:44;;;;;;;1.25;0.85;;;;;;;;;;5049463;27;20033;-85
2023/06/29 03:37:10;;;;;;;0.28;0.20;;;;;;;;;;5049041;28;20032;-85
2023/06/29 03:39:37;;;;;;;0.05;0.05;;;;;;;;;;5049118;28;20459;-83
2023/06/29 03:42:03;;;;;;;0.08;0.08;;;;;;;;;;5049060;28;20483;-85
2023/06/29 03:44:29;;;;;;;0.10;0.10;;;;;;;;;;5049479;28;20061;-85
2023/06/29 03:46:55;;;;;;;0.20;0.20;;;;;;;;;;5049072;27;20112;-85
2023/06/29 03:49:21;;;;;;;0.10;0.10;;;;;;;;;;5049101;28;20021;-85
2023/06/29 03:51:47;;;;;;;0.20;0.20;;;;;;;;;;5048900;28;20379;-85
2023/06/29 03:54:13;;;;;;;0.10;0.10;;;;;;;;;;5049142;28;20048;-85
2023/06/29 03:56:39;;;;;;;0.10;0.10;;;;;;;;;;5048841;28;20033;-85
2023/06/29 03:59:05;;;;;;;0.50;0.47;;;;;;;;;;5048733;28;20536;-85
2023/06/29 04:01:31;;;;;;;0.88;0.10;;;;;;;;;;5048799;28;20123;-85
2023/06/29 04:03:57;;;;;;;0.05;0.05;;;;;;;;;;5049250;28;20049;-85
2023/06/29 04:06:23;;;;;;;0.20;0.20;;;;;;;;;;5048397;28;20478;-85
2023/06/29 04:08:49;;;;;;;0.10;0.10;;;;;;;;;;5048825;28;20092;-85
2023/06/29 04:11:15;;;;;;;0.30;0.30;;;;;;;;;;5048660;28;20495;-85
2023/06/29 04:13:41;;;;;;;0.30;0.30;;;;;;;;;;5052111;28;20408;-85
2023/06/29 04:16:07;;;;;;;0.17;0.17;;;;;;;;;;5052550;28;20520;-85
2023/06/29 04:18:35;;;;;;;0.13;0.13;;;;;;;;;;5052012;28;20025;-85
2023/06/29 04:21:01;;;;;;;0.00;0.00;;;;;;;;;;5051876;28;20494;-85
2023/06/29 04:23:27;;;;;;;0.10;0.10;;;;;;;;;;5052086;28;20032;-85
2023/06/29 04:25:53;;;;;;;0.30;0.15;;;;;;;;;;5052148;28;20032;-85
2023/06/29 04:28:19;;;;;;;0.35;0.28;;;;;;;;;;5052069;28;20053;-85
2023/06/29 04:30:45;;;;;;;0.10;0.10;;;;;;;;;;5051951;27;20540;-85
2023/06/29 04:33:11;;;;;;;0.00;0.00;;;;;;;;;;5052176;28;20025;-85
2023/06/29 04:35:41;;;;;;;0.10;0.10;;;;;;;;;;5051974;28;20029;-85
2023/06/29 04:38:09;;;;;;;0.10;0.10;;;;;;;;;;5051920;28;20027;-85
2023/06/29 04:40:35;;;;;;;0.10;0.10;;;;;;;;;;5051669;28;20021;-85
2023/06/29 04:43:01;;;;;;;0.10;0.10;;;;;;;;;;5050598;28;20115;-85
2023/06/29 04:45:31;;;;;;;0.10;0.10;;;;;;;;;;5051869;28;20055;-84
2023/06/29 04:47:57;;;;;;;0.10;0.10;;;;;;;;;;5051309;27;20120;-85
2023/06/29 04:50:26;;;;;;;0.10;0.10;;;;;;;;;;5051753;28;20454;-85
2023/06/29 04:52:55;;;;;;;0.10;0.10;;;;;;;;;;5051761;28;20036;-85
2023/06/29 04:55:22;;;;;;;0.40;0.35;;;;;;;;;;5051585;28;20038;-85
2023/06/29 04:57:48;;;;;;;0.22;0.22;;;;;;;;;;5051589;28;20025;-84
2023/06/29 05:00:15;;;;;;;0.40;0.40;;;;;;;;;;5051837;28;20481;-85
2023/06/29 05:02:43;;;;;;;0.13;0.13;;;;;;;;;;5051354;28;20036;-85
2023/06/29 05:05:10;;;;;;;0.47;0.32;;;;;;;;;;5051528;28;20026;-85
2023/06/29 05:07:37;;;;;;;0.20;0.20;;;;;;;;;;5051470;28;20047;-85
2023/06/29 05:10:03;;;;;;;0.17;0.17;;;;;;;;;;5051412;28;20025;-85
2023/06/29 05:12:29;;;;;;;0.22;0.22;;;;;;;;;;5051600;28;20153;-84
2023/06/29 05:14:56;;;;;;;0.10;0.10;;;;;;;;;;5051321;28;20029;-85
2023/06/29 05:17:22;;;;;;;0.30;0.30;;;;;;;;;;5049682;28;20427;-85
2023/06/29 05:19:48;;;;;;;0.20;0.20;;;;;;;;;;5051575;28;20502;-85
2023/06/29 05:22:14;;;;;;;0.10;0.10;;;;;;;;;;5051031;28;20029;-85
2023/06/29 05:24:41;;;;;;;0.10;0.10;;;;;;;;;;5051060;28;20032;-85
2023/06/29 05:27:08;;;;;;;0.10;0.10;;;;;;;;;;5050782;28;20068;-85
2023/06/29 05:29:34;;;;;;;0.00;0.00;;;;;;;;;;5051205;28;20027;-85
2023/06/29 05:32:00;;;;;;;0.10;0.10;;;;;;;;;;5050979;27;20111;-85
2023/06/29 05:34:26;;;;;;;0.05;0.05;;;;;;;;;;5051460;28;20024;-86
2023/06/29 05:36:53;;;;;;;0.10;0.10;;;;;;;;;;5051134;28;20040;-86
2023/06/29 05:39:19;;;;;;;0.10;0.10;;;;;;;;;;5050977;28;20069;-86
2023/06/29 05:41:45;;;;;;;0.20;0.20;;;;;;;;;;5050946;27;20491;-85
2023/06/29 05:44:11;;;;;;;0.10;0.10;;;;;;;;;;5051103;28;20053;-86
2023/06/29 05:46:37;;;;;;;0.10;0.10;;;;;;;;;;5050474;27;20517;-86
2023/06/29 05:49:03;;;;;;;0.30;0.20;;;;;;;;;;5050739;28;20021;-86
2023/06/29 05:51:29;;;;;;;0.10;0.10;;;;;;;;;;5050500;28;20116;-86
2023/06/29 05:53:56;;;;;;;0.08;0.08;;;;;;;;;;5051059;28;20021;-85
2023/06/29 05:56:22;;;;;;;0.25;0.10;;;;;;;;;;5050693;28;20123;-85
2023/06/29 05:58:48;;;;;;;0.30;0.30;;;;;;;;;;5050706;28;20040;-85
2023/06/29 06:01:14;;;;;;;0.10;0.10;;;;;;;;;;5050173;28;20462;-86
2023/06/29 06:03:40;;;;;;;0.98;0.40;;;;;;;;;;5050619;28;20021;-85
2023/06/29 06:06:06;;;;;;;0.20;0.20;;;;;;;;;;5050908;28;20398;-86
2023/06/29 06:08:32;;;;;;;0.10;0.10;;;;;;;;;;5050495;28;20021;-85
2023/06/29 06:10:58;;;;;;;0.52;0.25;;;;;;;;;;5050431;28;20391;-85
2023/06/29 06:13:24;;;;;;;0.45;0.45;;;;;;;;;;5050845;28;20394;-85
2023/06/29 06:15:52;;;;;;;6.75;1.35;;;;;;;;;;5049997;28;20104;-86
2023/06/29 06:18:18;;;;;;;0.20;0.17;;;;;;;;;;5050353;28;20499;-86
2023/06/29 06:20:44;;;;;;;0.30;0.30;;;;;;;;;;5050164;28;20036;-85
2023/06/29 06:23:10;;;;;;;0.40;0.30;;;;;;;;;;5050476;28;20021;-85
2023/06/29 06:25:36;;;;;;;0.22;0.22;;;;;;;;;;5050382;28;20033;-86
2023/06/29 06:28:02;;;;;;;0.32;0.32;;;;;;;;;;5050030;28;20056;-85
2023/06/29 06:30:28;;;;;;;1.50;0.65;;;;;;;;;;5050258;28;20028;-86
2023/06/29 06:32:54;;;;;;;0.20;0.20;;;;;;;;;;5050601;27;20093;-85
2023/06/29 06:35:20;;;;;;;0.20;0.20;;;;;;;;;;5048689;28;20037;-86
2023/06/29 06:37:46;;;;;;;0.10;0.10;;;;;;;;;;5049988;28;20048;-84
2023/06/29 06:40:12;;;;;;;0.20;0.20;;;;;;;;;;5050122;28;20165;-84
2023/06/29 06:42:39;;;;;;;0.20;0.20;;;;;;;;;;5050373;28;20052;-84
2023/06/29 06:45:05;;;;;;;0.10;0.10;;;;;;;;;;5049863;28;20104;-84
2023/06/29 06:47:32;;;;;;;4.05;0.43;;;;;;;;;;5050099;27;20071;-84
2023/06/29 06:49:58;;;;;;;0.95;0.35;;;;;;;;;;5050318;28;20025;-83
2023/06/29 06:52:24;;;;;;;0.32;0.32;;;;;;;;;;5050004;28;20040;-84
2023/06/29 06:54:51;;;;;;;0.38;0.38;;;;;;;;;;5050119;28;20021;-84
2023/06/29 06:57:17;;;;;;;0.35;0.35;;;;;;;;;;5050007;28;20049;-84
2023/06/29 06:59:43;;;;;;;0.85;0.73;;;;;;;;;;5049593;28;20473;-84
2023/06/29 07:02:09;;;;;;;0.20;0.20;;;;;;;;;;5050172;28;20461;-84
2023/06/29 07:04:35;;;;;;;0.40;0.40;;;;;;;;;;5049380;28;20478;-84
2023/06/29 07:07:01;;;;;;;0.15;0.15;;;;;;;;;;5050091;28;20032;-83
2023/06/29 07:09:27;;;;;;;0.43;0.43;;;;;;;;;;5049860;28;20025;-84
2023/06/29 07:11:53;;;;;;;0.20;0.20;;;;;;;;;;5049784;28;20029;-84
2023/06/29 07:14:21;;;;;;;1.73;0.95;;;;;;;;;;5049482;28;20025;-84
2023/06/29 07:16:47;;;;;;;0.15;0.15;;;;;;;;;;5049836;28;20421;-84
2023/06/29 07:19:14;;;;;;;0.35;0.20;;;;;;;;;;5049560;28;20021;-84
2023/06/29 07:21:40;;;;;;;1.05;1.05;;;;;;;;;;5049880;28;20435;-84
2023/06/29 07:24:06;;;;;;;0.40;0.40;;;;;;;;;;5049714;28;20108;-84
2023/06/29 07:26:32;;;;;;;0.10;0.10;;;;;;;;;;5049150;28;20565;-85
2023/06/29 07:28:58;;;;;;;0.13;0.10;;;;;;;;;;5047799;28;20033;-85
2023/06/29 07:31:25;;;;;;;0.32;0.20;;;;;;;;;;5049149;28;20036;-84
2023/06/29 07:33:52;;;;;;;0.05;0.05;;;;;;;;;;5049131;28;20021;-84
2023/06/29 07:36:20;;;;;;;0.22;0.10;;;;;;;;;;5049340;28;20049;-84
2023/06/29 07:38:46;;;;;;;0.10;0.10;;;;;;;;;;5049370;28;20036;-84
2023/06/29 07:41:12;;;;;;;0.10;0.10;;;;;;;;;;5049495;28;20521;-84
2023/06/29 07:43:40;;;;;;;0.28;0.28;;;;;;;;;;5048776;28;20053;-83
2023/06/29 07:46:06;;;;;;;0.75;0.55;;;;;;;;;;5049094;28;20025;-84
2023/06/29 07:48:32;;;;;;;0.10;0.10;;;;;;;;;;5049021;27;20032;-84
2023/06/29 07:50:58;;;;;;;0.10;0.10;;;;;;;;;;5049244;28;20056;-84
2023/06/29 07:53:24;;;;;;;0.20;0.20;;;;;;;;;;5049134;28;20046;-84
2023/06/29 07:55:50;;;;;;;0.20;0.20;;;;;;;;;;5049099;28;20120;-84
2023/06/29 07:58:17;;;;;;;0.10;0.10;;;;;;;;;;5049132;28;20032;-84
2023/06/29 08:00:43;;;;;;;0.10;0.10;;;;;;;;;;5049006;28;20107;-84
2023/06/29 08:03:09;;;;;;;0.32;0.32;;;;;;;;;;5048827;28;20068;-84
2023/06/29 08:05:35;;;;;;;0.47;0.40;;;;;;;;;;5048840;28;20025;-84
2023/06/29 08:08:01;;;;;;;0.10;0.10;;;;;;;;;;5048922;28;20040;-84
2023/06/29 08:10:27;;;;;;;1.00;0.85;;;;;;;;;;5047754;28;20496;-83
2023/06/29 08:12:53;;;;;;;0.30;0.30;;;;;;;;;;5048867;28;20077;-84
2023/06/29 08:15:19;;;;;;;0.50;0.50;;;;;;;;;;5049254;28;20021;-83
2023/06/29 08:17:45;;;;;;;0.40;0.40;;;;;;;;;;5048807;28;20494;-83
2023/06/29 08:20:12;;;;;;;0.70;0.30;;;;;;;;;;5049048;28;20021;-84
2023/06/29 08:22:38;;;;;;;0.20;0.20;;;;;;;;;;5049217;28;20025;-83
2023/06/29 08:25:05;;;;;;;0.40;0.40;;;;;;;;;;5048525;28;20029;-84
2023/06/29 08:27:31;;;;;;;0.38;0.32;;;;;;;;;;5048380;28;20133;-83
2023/06/29 08:29:57;;;;;;;0.52;0.43;;;;;;;;;;5047840;28;20081;-84
2023/06/29 08:32:23;;;;;;;6.75;1.10;;;;;;;;;;5048721;28;20025;-83
2023/06/29 08:34:49;;;;;;;0.30;0.30;;;;;;;;;;5048789;28;20021;-84
2023/06/29 08:37:15;;;;;;;0.45;0.45;;;;;;;;;;5048671;28;20085;-84
2023/06/29 08:39:41;;;;;;;0.85;0.32;;;;;;;;;;5048705;28;20052;-83
2023/06/29 08:42:08;;;;;;;0.63;0.30;;;;;;;;;;5048203;28;20090;-84
2023/06/29 08:44:34;;;;;;;0.20;0.20;;;;;;;;;;5049197;28;20044;-84
2023/06/29 08:47:01;;;;;;;0.50;0.22;;;;;;;;;;5048381;27;20033;-84
2023/06/29 08:49:28;;;;;;;0.30;0.30;;;;;;;;;;5048841;28;20045;-84
2023/06/29 08:51:58;;;;;;;0.30;0.30;;;;;;;;;;5048543;28;20044;-84
2023/06/29 08:54:26;;;;;;;0.10;0.10;;;;;;;;;;5048493;28;20025;-84
2023/06/29 08:56:52;;;;;;;4.07;0.45;;;;;;;;;;5048440;28;20484;-84
2023/06/29 08:59:19;;;;;;;0.28;0.20;;;;;;;;;;5051090;28;20096;-84
2023/06/29 09:01:46;;;;;;;0.50;0.50;;;;;;;;;;5051627;28;20494;-84
2023/06/29 09:04:12;;;;;;;0.10;0.10;;;;;;;;;;5051707;28;20134;-84
2023/06/29 09:06:40;;;;;;;0.10;0.10;;;;;;;;;;5052226;28;20472;-84
2023/06/29 09:09:07;;;;;;;0.43;0.43;;;;;;;;;;5050962;28;20024;-84
2023/06/29 09:11:34;;;;;;;0.63;0.60;;;;;;;;;;5052049;28;20066;-84
2023/06/29 09:14:02;;;;;;;0.63;0.63;;;;;;;;;;5051719;28;20029;-84
2023/06/29 09:16:28;;;;;;;0.25;0.25;;;;;;;;;;5051328;28;20096;-83
2023/06/29 09:18:54;;;;;;;0.28;0.28;;;;;;;;;;5051626;28;20162;-84
2023/06/29 09:21:23;;;;;;;0.98;0.70;;;;;;;;;;5051554;28;20092;-84
2023/06/29 09:23:49;;;;;;;0.30;0.30;;;;;;;;;;5051409;28;20399;-84
2023/06/29 09:26:18;;;;;;;0.20;0.15;;;;;;;;;;5051321;28;20029;-84
2023/06/29 09:28:47;;;;;;;0.28;0.28;;;;;;;;;;5051362;28;20041;-83
2023/06/29 09:31:13;;;;;;;0.30;0.30;;;;;;;;;;5050087;28;20115;-83
2023/06/29 09:33:40;;;;;;;0.63;0.63;;;;;;;;;;5051710;28;20021;-83
2023/06/29 09:36:09;;;;;;;0.28;0.28;;;;;;;;;;5051376;27;20463;-84
2023/06/29 09:38:35;;;;;;;0.10;0.10;;;;;;;;;;5050934;28;20391;-84
2023/06/29 09:41:02;;;;;;;0.22;0.22;;;;;;;;;;5051341;28;20025;-84
2023/06/29 09:43:29;;;;;;;0.50;0.50;;;;;;;;;;5049908;28;20020;-84
2023/06/29 09:46:17;;;;;;;0.25;0.25;;;;;;;;;;5051604;27;20029;-84
2023/06/29 09:48:45;;;;;;;0.10;0.10;;;;;;;;;;5051256;28;20398;-84
2023/06/29 09:51:11;;;;;;;0.50;0.40;;;;;;;;;;5051029;28;20025;-83
2023/06/29 09:53:37;;;;;;;0.28;0.28;;;;;;;;;;5050677;28;20090;-84
2023/06/29 09:56:03;;;;;;;0.13;0.13;;;;;;;;;;5051072;28;20048;-84
2023/06/29 09:58:30;;;;;;;0.10;0.10;;;;;;;;;;5050709;28;20029;-83
2023/06/29 10:00:59;;;;;;;0.20;0.20;;;;;;;;;;5050739;28;20414;-84
2023/06/29 10:03:27;;;;;;;0.30;0.30;;;;;;;;;;5050779;28;20112;-83
2023/06/29 10:05:56;;;;;;;0.30;0.30;;;;;;;;;;5051254;28;20328;-84
2023/06/29 10:08:22;;;;;;;6.30;1.30;;;;;;;;;;5050436;28;20084;-84
2023/06/29 10:10:52;;;;;;;0.30;0.30;;;;;;;;;;5049951;28;20055;-84
2023/06/29 10:13:18;;;;;;;0.28;0.28;;;;;;;;;;5050597;28;20033;-84
2023/06/29 10:15:44;;;;;;;1.10;0.47;;;;;;;;;;5050557;28;20028;-84
2023/06/29 10:18:15;;;;;;;0.22;0.22;;;;;;;;;;5050576;28;20407;-84
2023/06/29 10:20:43;;;;;;;0.22;0.22;;;;;;;;;;5049227;28;20021;-86
2023/06/29 10:23:12;;;;;;;0.17;0.17;;;;;;;;;;5044821;28;20036;-83
2023/06/29 10:25:42;;;;;;;0.50;0.50;;;;;;;;;;5046316;28;20439;-84
2023/06/29 10:28:08;;;;;;;0.10;0.10;;;;;;;;;;5032900;28;20137;-84
2023/06/29 10:30:45;;;;;;;0.85;0.57;;;;;;;;;;5029623;28;20026;-84
2023/06/29 10:33:11;;;;;;;0.85;0.75;;;;;;;;;;5030488;28;20398;-84
2023/06/29 10:35:37;;;;;;;0.40;0.28;;;;;;;;;;5030951;28;20471;-84
2023/06/29 10:38:08;;;;;;;0.15;0.15;;;;;;;;;;5030139;28;20108;-84
2023/06/29 10:40:45;;;;;;;0.32;0.32;;;;;;;;;;5029477;28;20049;-84
2023/06/29 10:43:11;;;;;;;0.20;0.20;;;;;;;;;;5030432;28;20061;-84
2023/06/29 10:45:38;;;;;;;3.33;0.85;;;;;;;;;;5030338;28;20025;-84
2023/06/29 10:48:05;;;;;;;0.55;0.45;;;;;;;;;;5046318;27;20044;-84
2023/06/29 10:50:31;;;;;;;0.68;0.60;;;;;;;;;;5050142;28;20445;-84
2023/06/29 10:53:01;;;;;;;0.75;0.75;;;;;;;;;;5050017;28;20021;-85
2023/06/29 10:55:29;;;;;;;1.20;0.60;;;;;;;;;;5050155;28;20028;-85
2023/06/29 10:58:07;;;;;;;0.40;0.40;;;;;;;;;;5050351;28;20145;-85
2023/06/29 11:00:33;;;;;;;0.68;0.63;;;;;;;;;;5049972;28;20534;-85
2023/06/29 11:02:59;;;;;;;0.43;0.43;;;;;;;;;;5049947;28;20033;-85
2023/06/29 11:05:25;;;;;;;0.45;0.45;;;;;;;;;;5049655;28;20028;-85
2023/06/29 11:07:52;;;;;;;0.57;0.40;;;;;;;;;;5050238;28;20029;-85
2023/06/29 11:10:22;;;;;;;0.10;0.10;;;;;;;;;;5049937;28;20088;-85
2023/06/29 11:12:56;;;;;;;0.50;0.30;;;;;;;;;;5049910;28;20036;-85
2023/06/29 11:15:22;;;;;;;0.20;0.20;;;;;;;;;;5049411;28;20017;-85
2023/06/29 11:17:49;;;;;;;0.47;0.47;;;;;;;;;;5050128;28;20021;-85
2023/06/29 11:20:17;;;;;;;0.20;0.20;;;;;;;;;;5049105;28;20049;-84
2023/06/29 11:22:43;;;;;;;0.20;0.20;;;;;;;;;;5048105;28;20033;-85
2023/06/29 11:25:16;;;;;;;0.28;0.28;;;;;;;;;;5049559;28;20029;-85
2023/06/29 11:27:42;;;;;;;0.25;0.20;;;;;;;;;;5049459;28;20044;-85
2023/06/29 11:30:10;;;;;;;0.52;0.52;;;;;;;;;;5050066;28;20396;-85
2023/06/29 11:32:42;;;;;;;0.40;0.40;;;;;;;;;;5049744;28;20464;-85
2023/06/29 11:35:12;;;;;;;0.50;0.50;;;;;;;;;;5049258;28;20551;-82
2023/06/29 11:37:39;;;;;;;0.77;0.38;;;;;;;;;;5049464;28;20033;-82
2023/06/29 11:40:15;;;;;;;0.65;0.65;;;;;;;;;;5049869;28;20021;-82
2023/06/29 11:42:42;;;;;;;0.28;0.28;;;;;;;;;;5049326;28;20060;-82
2023/06/29 11:45:08;;;;;;;0.52;0.52;;;;;;;;;;5049331;28;20394;-82
2023/06/29 11:47:34;;;;;;;2.28;0.60;;;;;;;;;;5049145;27;20124;-82
2023/06/29 11:50:01;;;;;;;0.32;0.32;;;;;;;;;;5049342;28;20025;-82
2023/06/29 11:52:30;;;;;;;0.10;0.10;;;;;;;;;;5049631;28;20394;-82
2023/06/29 11:54:56;;;;;;;0.32;0.32;;;;;;;;;;5049040;28;20495;-83
2023/06/29 11:57:22;;;;;;;0.73;0.60;;;;;;;;;;5049127;28;20033;-83
2023/06/29 11:59:48;;;;;;;1.10;0.40;;;;;;;;;;5049492;28;20032;-82
2023/06/29 12:02:15;;;;;;;0.30;0.30;;;;;;;;;;5048956;28;20137;-82
2023/06/29 12:04:54;;;;;;;3.45;0.80;;;;;;;;;;5048703;28;20036;-82
2023/06/29 12:07:34;;;;;;;0.75;0.75;;;;;;;;;;5049436;28;20602;-82
2023/06/29 12:10:01;;;;;;;0.35;0.35;;;;;;;;;;5048945;28;20105;-82
2023/06/29 12:12:27;;;;;;;0.17;0.13;;;;;;;;;;5048913;28;20494;-82
2023/06/29 12:14:53;;;;;;;0.10;0.10;;;;;;;;;;5048982;28;20067;-82
2023/06/29 12:17:20;;;;;;;0.35;0.35;;;;;;;;;;5048452;28;20025;-82
2023/06/29 12:19:51;;;;;;;0.28;0.20;;;;;;;;;;5048927;28;20032;-82
2023/06/29 12:22:17;;;;;;;0.22;0.22;;;;;;;;;;5049029;28;20106;-82
2023/06/29 12:24:49;;;;;;;0.30;0.20;;;;;;;;;;5048839;28;20098;-82
2023/06/29 12:27:15;;;;;;;0.60;0.60;;;;;;;;;;5048598;28;20057;-83
2023/06/29 12:29:41;;;;;;;0.30;0.30;;;;;;;;;;5048600;28;20161;-82
2023/06/29 12:32:07;;;;;;;1.55;0.93;;;;;;;;;;5048578;28;20025;-83
2023/06/29 12:34:33;;;;;;;0.60;0.50;;;;;;;;;;5052256;28;20119;-83
2023/06/29 12:37:00;;;;;;;0.22;0.22;;;;;;;;;;5052220;28;20121;-83
2023/06/29 12:39:27;;;;;;;0.63;0.40;;;;;;;;;;5052165;28;20126;-83
2023/06/29 12:41:55;;;;;;;0.20;0.20;;;;;;;;;;5051995;28;20410;-82
2023/06/29 12:44:21;;;;;;;0.30;0.30;;;;;;;;;;5052448;28;20017;-82
2023/06/29 12:46:47;;;;;;;0.17;0.17;;;;;;;;;;5051735;27;20120;-82
2023/06/29 12:49:13;;;;;;;0.70;0.60;;;;;;;;;;5051932;28;20029;-83
2023/06/29 12:51:39;;;;;;;0.77;0.77;;;;;;;;;;5052091;28;20509;-83
2023/06/29 12:54:05;;;;;;;0.15;0.15;;;;;;;;;;5052237;28;20029;-82
2023/06/29 12:56:31;;;;;;;0.20;0.20;;;;;;;;;;5051899;28;20036;-83
2023/06/29 12:58:57;;;;;;;0.20;0.20;;;;;;;;;;5051799;28;20469;-83
2023/06/29 13:01:24;;;;;;;1.08;0.95;;;;;;;;;;5051882;28;20033;-82
2023/06/29 13:03:50;;;;;;;0.70;0.60;;;;;;;;;;5051811;28;20033;-83
2023/06/29 13:06:16;;;;;;;0.40;0.30;;;;;;;;;;5051670;28;20551;-83
2023/06/29 13:08:41;;;;;;;0.60;0.60;;;;;;;;;;5051624;28;20052;-83
2023/06/29 13:11:08;;;;;;;0.30;0.30;;;;;;;;;;5051703;28;20018;-83
2023/06/29 13:13:34;;;;;;;0.20;0.20;;;;;;;;;;5051736;28;20036;-83
2023/06/29 13:16:00;;;;;;;0.30;0.30;;;;;;;;;;5051605;28;20048;-83
2023/06/29 13:18:26;;;;;;;0.60;0.50;;;;;;;;;;5051520;28;20466;-82
2023/06/29 13:20:52;;;;;;;2.28;1.23;;;;;;;;;;5051438;28;20037;-83
2023/06/29 13:23:17;;;;;;;0.20;0.20;;;;;;;;;;5051686;28;20033;-83
2023/06/29 13:25:43;;;;;;;0.75;0.73;;;;;;;;;;5051685;28;20029;-83
2023/06/29 13:28:10;;;;;;;0.60;0.60;;;;;;;;;;5051714;28;20084;-83
2023/06/29 13:30:36;;;;;;;0.22;0.22;;;;;;;;;;5051093;28;20077;-83
2023/06/29 13:33:02;;;;;;;0.22;0.20;;;;;;;;;;5050096;28;20037;-82
2023/06/29 13:35:28;;;;;;;0.30;0.30;;;;;;;;;;5051680;28;20029;-83
2023/06/29 13:37:54;;;;;;;0.88;0.60;;;;;;;;;;5051399;28;20489;-83
2023/06/29 13:40:20;;;;;;;0.40;0.40;;;;;;;;;;5051695;28;20029;-83
2023/06/29 13:42:46;;;;;;;0.30;0.30;;;;;;;;;;5051274;28;20123;-83
2023/06/29 13:45:12;;;;;;;0.65;0.65;;;;;;;;;;5050592;28;20021;-82
2023/06/29 13:47:39;;;;;;;0.65;0.52;;;;;;;;;;5051193;27;20078;-83
2023/06/29 13:50:05;;;;;;;0.77;0.77;;;;;;;;;;5051126;28;20078;-82
2023/06/29 13:52:31;;;;;;;0.20;0.20;;;;;;;;;;5051220;28;20026;-82
2023/06/29 13:54:58;;;;;;;0.75;0.52;;;;;;;;;;5050951;28;20393;-83
2023/06/29 13:57:23;;;;;;;0.43;0.43;;;;;;;;;;5051099;28;20029;-83
2023/06/29 13:59:49;;;;;;;0.80;0.60;;;;;;;;;;5050762;28;20069;-83
2023/06/29 14:02:16;;;;;;;0.75;0.73;;;;;;;;;;5050911;28;20041;-83
2023/06/29 14:04:42;;;;;;;0.82;0.57;;;;;;;;;;5050969;28;20021;-83
2023/06/29 14:07:08;;;;;;;0.20;0.20;;;;;;;;;;5050701;28;20474;-83
2023/06/29 14:09:34;;;;;;;0.35;0.35;;;;;;;;;;5050697;28;20105;-82
2023/06/29 14:12:00;;;;;;;0.25;0.25;;;;;;;;;;5050788;28;20383;-83
2023/06/29 14:14:26;;;;;;;0.30;0.30;;;;;;;;;;5050701;28;20025;-83
2023/06/29 14:16:52;;;;;;;0.38;0.38;;;;;;;;;;5049531;28;20402;-83
2023/06/29 14:19:18;;;;;;;0.38;0.38;;;;;;;;;;5050480;28;20035;-83
2023/06/29 14:21:44;;;;;;;0.52;0.52;;;;;;;;;;5050738;28;20036;-82
2023/06/29 14:24:10;;;;;;;0.73;0.73;;;;;;;;;;5050807;28;20032;-83
2023/06/29 14:26:36;;;;;;;0.60;0.40;;;;;;;;;;5050445;28;20056;-83
2023/06/29 14:29:02;;;;;;;0.60;0.47;;;;;;;;;;5050700;28;20078;-83
2023/06/29 14:31:28;;;;;;;0.43;0.40;;;;;;;;;;5050618;28;20037;-83
2023/06/29 14:33:54;;;;;;;1.23;0.45;;;;;;;;;;5050475;28;20028;-83
2023/06/29 14:36:20;;;;;;;0.20;0.20;;;;;;;;;;5050324;28;20025;-82
2023/06/29 14:38:46;;;;;;;0.52;0.50;;;;;;;;;;5050527;28;20029;-83
2023/06/29 14:41:12;;;;;;;1.20;0.52;;;;;;;;;;5050325;28;20044;-83